createdAt,value
2023-08-16T00:00:57.736Z,2.22
2023-08-16T00:03:26.553Z,2.60
2023-08-16T00:05:54.835Z,3.50
2023-08-16T00:08:25.179Z,2.80
2023-08-16T00:10:53.912Z,2.53
2023-08-16T00:13:22.080Z,2.70
2023-08-16T00:15:51.517Z,2.20
2023-08-16T00:18:19.708Z,2.70
2023-08-16T00:20:47.785Z,2.20
2023-08-16T00:23:15.867Z,2.20
2023-08-16T00:25:43.931Z,2.58
2023-08-16T00:28:12.037Z,2.42
2023-08-16T00:30:40.126Z,2.50
2023-08-16T00:33:09.716Z,2.50
2023-08-16T00:35:37.883Z,2.70
2023-08-16T00:38:06.244Z,2.75
2023-08-16T00:40:35.218Z,2.70
2023-08-16T00:43:04.348Z,2.90
2023-08-16T00:45:32.471Z,3.05
2023-08-16T00:48:00.921Z,2.72
2023-08-16T00:50:30.499Z,2.80
2023-08-16T00:52:58.554Z,2.53
2023-08-16T00:55:26.640Z,3.17
2023-08-16T00:57:55.524Z,3.03
2023-08-16T01:00:23.891Z,3.17
2023-08-16T01:02:52.418Z,3.50
2023-08-16T01:05:20.638Z,3.95
2023-08-16T01:07:50.051Z,3.33
2023-08-16T01:10:18.325Z,3.10
2023-08-16T01:12:49.513Z,2.97
2023-08-16T01:15:20.973Z,2.97
2023-08-16T01:17:49.120Z,2.70
2023-08-16T01:20:17.211Z,3.50
2023-08-16T01:23:00.439Z,3.33
2023-08-16T01:25:36.373Z,3.30
2023-08-16T01:28:06.404Z,3.30
2023-08-16T01:30:34.689Z,3.13
2023-08-16T01:33:09.304Z,3.50
2023-08-16T01:35:37.601Z,3.38
2023-08-16T01:38:06.071Z,2.75
2023-08-16T01:40:39.674Z,3.40
2023-08-16T01:43:11.948Z,2.97
2023-08-16T01:45:40.453Z,3.60
2023-08-16T01:48:08.935Z,3.33
2023-08-16T01:50:37.219Z,3.38
2023-08-16T01:53:05.467Z,3.67
2023-08-16T01:55:33.534Z,5.88
2023-08-16T01:58:01.615Z,3.08
2023-08-16T02:00:31.192Z,3.33
2023-08-16T02:02:59.357Z,3.00
2023-08-16T02:05:27.506Z,3.38
2023-08-16T02:07:55.559Z,3.47
2023-08-16T02:10:23.663Z,3.08
2023-08-16T02:12:51.729Z,3.20
2023-08-16T02:15:19.976Z,3.80
2023-08-16T02:17:49.496Z,3.30
2023-08-16T02:20:17.820Z,3.20
2023-08-16T02:22:45.884Z,3.33
2023-08-16T02:25:13.980Z,3.33
2023-08-16T02:27:42.339Z,3.90
2023-08-16T02:30:10.797Z,3.60
2023-08-16T02:32:39.094Z,3.20
2023-08-16T02:35:09.843Z,3.47
2023-08-16T02:37:38.050Z,3.13
2023-08-16T02:40:07.300Z,3.85
2023-08-16T02:42:35.352Z,3.70
2023-08-16T02:45:03.439Z,3.40
2023-08-16T02:47:31.570Z,3.50
2023-08-16T02:49:59.675Z,3.47
2023-08-16T02:52:29.311Z,3.10
2023-08-16T02:54:57.483Z,2.92
2023-08-16T02:57:26.008Z,3.45
2023-08-16T02:59:54.390Z,3.22
2023-08-16T03:02:23.048Z,3.45
2023-08-16T03:04:51.122Z,3.35
2023-08-16T03:07:19.259Z,4.93
2023-08-16T03:09:48.743Z,3.33
2023-08-16T03:12:16.872Z,3.20
2023-08-16T03:14:45.021Z,3.33
2023-08-16T03:17:13.155Z,3.80
2023-08-16T03:19:41.336Z,3.53
2023-08-16T03:22:09.402Z,4.30
2023-08-16T03:24:37.539Z,3.47
2023-08-16T03:27:07.147Z,3.55
2023-08-16T03:29:35.217Z,3.65
2023-08-16T03:32:03.277Z,3.47
2023-08-16T03:34:33.150Z,3.63
2023-08-16T03:37:01.240Z,3.45
2023-08-16T03:39:29.445Z,3.25
2023-08-16T03:41:57.525Z,3.47
2023-08-16T03:44:27.122Z,3.50
2023-08-16T03:46:55.247Z,3.70
2023-08-16T03:49:23.367Z,4.10
2023-08-16T03:51:51.750Z,3.42
2023-08-16T03:54:19.959Z,3.70
2023-08-16T03:56:48.020Z,4.00
2023-08-16T03:59:16.171Z,4.40
2023-08-16T04:01:45.691Z,4.10
2023-08-16T04:04:13.757Z,4.32
2023-08-16T04:06:41.883Z,4.47
2023-08-16T04:09:11.037Z,4.25
2023-08-16T04:11:39.157Z,5.13
2023-08-16T04:14:07.199Z,5.20
2023-08-16T04:16:35.344Z,5.43
2023-08-16T04:19:04.925Z,8.15
2023-08-16T04:21:33.166Z,7.20
2023-08-16T04:24:01.446Z,8.73
2023-08-16T04:26:29.786Z,8.55
2023-08-16T04:28:57.910Z,9.48
2023-08-16T04:31:26.022Z,9.73
2023-08-16T04:33:54.100Z,10.25
2023-08-16T04:36:23.543Z,10.10
2023-08-16T04:38:51.739Z,9.68
2023-08-16T04:41:19.927Z,7.40
2023-08-16T04:43:48.529Z,8.75
2023-08-16T04:46:17.163Z,8.27
2023-08-16T04:48:45.478Z,7.93
2023-08-16T04:51:13.582Z,7.47
2023-08-16T04:53:43.048Z,6.85
2023-08-16T04:56:11.182Z,7.40
2023-08-16T04:58:39.377Z,5.22
2023-08-16T05:01:07.485Z,5.50
2023-08-16T05:03:35.925Z,6.35
2023-08-16T05:06:04.818Z,5.70
2023-08-16T05:08:33.043Z,4.68
2023-08-16T05:11:02.548Z,6.30
2023-08-16T05:13:30.666Z,5.75
2023-08-16T05:15:59.139Z,5.70
2023-08-16T05:18:27.337Z,5.55
2023-08-16T05:20:57.719Z,5.75
2023-08-16T05:23:25.878Z,4.95
2023-08-16T05:25:54.008Z,5.70
2023-08-16T05:28:23.743Z,8.07
2023-08-16T05:30:51.881Z,5.32
2023-08-16T05:33:20.019Z,5.05
2023-08-16T05:35:48.261Z,4.82
2023-08-16T05:38:19.280Z,4.78
2023-08-16T05:40:47.435Z,4.65
2023-08-16T05:43:15.586Z,4.55
2023-08-16T05:45:45.033Z,4.85
2023-08-16T05:48:13.276Z,4.40
2023-08-16T05:50:42.658Z,4.57
2023-08-16T05:53:10.756Z,4.32
2023-08-16T05:55:39.048Z,5.00
2023-08-16T05:58:07.138Z,4.47
2023-08-16T06:00:35.351Z,6.13
2023-08-16T06:03:05.458Z,5.00
2023-08-16T06:05:34.036Z,4.63
2023-08-16T06:08:02.205Z,5.32
2023-08-16T06:10:30.413Z,4.40
2023-08-16T06:12:58.671Z,4.50
2023-08-16T06:15:26.745Z,4.20
2023-08-16T06:17:54.981Z,4.15
2023-08-16T06:20:24.462Z,4.22
2023-08-16T06:22:52.964Z,4.43
2023-08-16T06:25:21.194Z,4.10
2023-08-16T06:27:49.948Z,4.10
2023-08-16T06:30:18.073Z,3.97
2023-08-16T06:32:46.922Z,3.85
2023-08-16T06:35:15.108Z,4.20
2023-08-16T06:37:47.423Z,4.05
2023-08-16T06:40:15.572Z,4.25
2023-08-16T06:42:43.633Z,4.05
2023-08-16T06:45:11.916Z,4.40
2023-08-16T06:47:40.129Z,4.20
2023-08-16T06:50:09.141Z,5.15
2023-08-16T06:52:38.077Z,4.68
2023-08-16T06:55:08.578Z,4.50
2023-08-16T06:57:36.936Z,4.05
2023-08-16T07:00:07.334Z,4.13
2023-08-16T07:02:35.612Z,4.22
2023-08-16T07:05:04.571Z,3.70
2023-08-16T07:07:34.871Z,4.07
2023-08-16T07:10:03.184Z,3.95
2023-08-16T07:12:32.713Z,4.28
2023-08-16T07:15:01.263Z,3.60
2023-08-16T07:17:30.358Z,4.80
2023-08-16T07:19:58.766Z,4.38
2023-08-16T07:22:28.490Z,3.65
2023-08-16T07:24:56.736Z,3.70
2023-08-16T07:27:25.621Z,3.63
2023-08-16T07:29:55.150Z,3.35
2023-08-16T07:32:23.550Z,3.50
2023-08-16T07:34:51.954Z,3.20
2023-08-16T07:37:20.613Z,3.60
2023-08-16T07:39:48.844Z,4.13
2023-08-16T07:42:20.056Z,3.55
2023-08-16T07:44:48.278Z,3.38
2023-08-16T07:47:17.941Z,3.55
2023-08-16T07:49:46.069Z,3.85
2023-08-16T07:52:14.448Z,3.50
2023-08-16T07:54:42.981Z,3.50
2023-08-16T07:57:11.253Z,3.90
2023-08-16T07:59:39.439Z,3.60
2023-08-16T08:02:08.004Z,3.70
2023-08-16T08:04:37.746Z,3.70
2023-08-16T08:07:06.021Z,3.63
2023-08-16T08:09:34.401Z,3.67
2023-08-16T08:12:02.777Z,4.10
2023-08-16T08:14:31.214Z,3.92
2023-08-16T08:16:59.326Z,4.45
2023-08-16T08:19:27.440Z,3.60
2023-08-16T08:21:57.363Z,3.83
2023-08-16T08:24:25.532Z,3.72
2023-08-16T08:26:53.755Z,3.70
2023-08-16T08:29:22.023Z,4.32
2023-08-16T08:31:50.495Z,4.40
2023-08-16T08:34:19.060Z,3.95
2023-08-16T08:36:47.213Z,4.20
2023-08-16T08:39:20.207Z,3.60
2023-08-16T08:41:49.061Z,4.60
2023-08-16T08:44:18.162Z,4.13
2023-08-16T08:46:47.744Z,3.50
2023-08-16T08:49:16.524Z,3.83
2023-08-16T08:51:44.783Z,4.13
2023-08-16T08:54:13.346Z,3.75
2023-08-16T08:56:42.800Z,3.35
2023-08-16T08:59:15.062Z,4.30
2023-08-16T09:01:44.851Z,5.03
2023-08-16T09:04:13.040Z,4.15
2023-08-16T09:06:41.146Z,4.00
2023-08-16T09:09:09.702Z,3.45
2023-08-16T09:11:37.800Z,3.45
2023-08-16T09:14:07.272Z,4.07
2023-08-16T09:16:35.330Z,3.40
2023-08-16T09:19:03.492Z,3.55
2023-08-16T09:21:32.277Z,3.22
2023-08-16T09:24:00.702Z,3.40
2023-08-16T09:26:29.388Z,3.78
2023-08-16T09:29:01.919Z,3.30
2023-08-16T09:31:32.169Z,3.60
2023-08-16T09:34:00.709Z,3.28
2023-08-16T09:36:30.241Z,2.88
2023-08-16T09:39:02.317Z,3.17
2023-08-16T09:41:31.705Z,3.25
2023-08-16T09:44:05.388Z,3.78
2023-08-16T09:46:35.041Z,3.30
2023-08-16T09:54:13.277Z,3.10
2023-08-16T09:57:29.059Z,2.95
2023-08-16T10:09:37.169Z,3.08
2023-08-16T10:12:05.598Z,3.10
2023-08-16T10:14:33.718Z,2.85
2023-08-16T10:17:03.705Z,2.70
2023-08-16T10:19:32.751Z,3.30
2023-08-16T10:22:01.104Z,2.97
2023-08-16T10:24:33.022Z,2.40
2023-08-16T10:27:01.762Z,3.00
2023-08-16T10:29:29.860Z,2.60
2023-08-16T10:31:58.253Z,2.60
2023-08-16T10:34:27.799Z,2.80
2023-08-16T10:36:55.934Z,3.00
2023-08-16T10:39:24.471Z,2.70
2023-08-16T10:41:52.792Z,2.92
2023-08-16T10:44:24.265Z,2.90
2023-08-16T10:46:52.559Z,2.80
2023-08-16T10:49:20.860Z,2.50
2023-08-16T10:51:52.251Z,2.63
2023-08-16T10:54:20.591Z,2.50
2023-08-16T10:56:49.862Z,2.83
2023-08-16T10:59:19.002Z,2.80
2023-08-16T11:01:47.788Z,2.45
2023-08-16T11:04:15.915Z,2.58
2023-08-16T11:06:51.783Z,3.15
2023-08-16T11:09:32.205Z,2.80
2023-08-16T11:12:03.656Z,3.42
2023-08-16T11:14:32.255Z,2.47
2023-08-16T11:17:00.471Z,2.80
2023-08-16T11:19:28.894Z,2.78
2023-08-16T11:21:58.698Z,2.40
2023-08-16T11:24:26.824Z,2.45
2023-08-16T11:26:56.513Z,2.97
2023-08-16T11:29:24.808Z,2.85
2023-08-16T11:31:57.935Z,3.25
2023-08-16T11:34:26.212Z,3.00
2023-08-16T11:36:54.321Z,3.17
2023-08-16T11:39:23.749Z,2.75
2023-08-16T11:41:51.873Z,2.58
2023-08-16T11:44:21.625Z,2.90
2023-08-16T11:46:50.692Z,2.85
2023-08-16T11:49:23.055Z,3.00
2023-08-16T11:51:52.050Z,2.65
2023-08-16T11:54:24.190Z,2.78
2023-08-16T11:56:52.684Z,2.60
2023-08-16T11:59:30.165Z,2.80
2023-08-16T12:01:58.599Z,3.00
2023-08-16T12:04:26.838Z,2.75
2023-08-16T12:06:55.545Z,2.63
2023-08-16T12:09:23.685Z,2.67
2023-08-16T12:11:52.564Z,3.00
2023-08-16T12:14:20.767Z,3.00
2023-08-16T12:16:50.628Z,2.88
2023-08-16T12:19:22.021Z,3.42
2023-08-16T12:21:51.410Z,2.70
2023-08-16T12:24:19.605Z,6.28
2023-08-16T12:26:47.830Z,2.80
2023-08-16T12:29:15.966Z,2.92
2023-08-16T12:31:44.489Z,3.20
2023-08-16T12:34:14.399Z,3.08
2023-08-16T12:36:42.592Z,2.97
2023-08-16T12:39:10.996Z,2.80
2023-08-16T12:41:39.045Z,3.08
2023-08-16T12:44:07.749Z,2.92
2023-08-16T12:46:35.810Z,2.95
2023-08-16T12:49:03.990Z,2.90
2023-08-16T12:51:33.619Z,2.97
2023-08-16T12:54:01.746Z,2.90
2023-08-16T12:56:29.839Z,2.78
2023-08-16T12:58:57.948Z,3.85
2023-08-16T13:01:41.661Z,3.05
2023-08-16T13:04:13.308Z,3.03
2023-08-16T13:09:26.179Z,3.45
2023-08-16T13:11:55.658Z,3.42
2023-08-16T13:17:05.126Z,3.13
2023-08-16T13:22:17.093Z,3.35
2023-08-16T13:24:58.022Z,3.05
2023-08-16T13:27:41.024Z,3.85
2023-08-16T13:30:44.042Z,3.05
2023-08-16T13:35:31.905Z,3.15
2023-08-16T13:38:17.252Z,3.50
2023-08-16T13:40:53.479Z,3.78
2023-08-16T13:43:25.866Z,4.10
2023-08-16T13:45:54.661Z,3.45
2023-08-16T13:48:22.794Z,3.35
2023-08-16T13:50:50.978Z,3.85
2023-08-16T13:53:20.615Z,3.08
2023-08-16T13:55:49.094Z,3.03
2023-08-16T13:58:17.420Z,3.22
2023-08-16T14:00:45.810Z,3.88
2023-08-16T14:03:13.999Z,3.70
2023-08-16T14:05:42.142Z,3.28
2023-08-16T14:08:11.077Z,3.17
2023-08-16T14:10:40.726Z,3.63
2023-08-16T14:13:13.498Z,3.90
2023-08-16T14:15:41.619Z,3.25
2023-08-16T14:18:09.789Z,3.08
2023-08-16T14:20:37.902Z,3.15
2023-08-16T14:23:06.128Z,3.30
2023-08-16T14:25:34.443Z,3.45
2023-08-16T14:28:03.999Z,3.38
2023-08-16T14:30:33.267Z,3.13
2023-08-16T14:33:03.145Z,3.53
2023-08-16T14:35:31.400Z,3.10
2023-08-16T14:38:00.436Z,3.40
2023-08-16T14:40:31.355Z,3.85
2023-08-16T14:42:59.876Z,3.13
2023-08-16T14:45:29.366Z,3.13
2023-08-16T14:47:57.549Z,2.97
2023-08-16T14:50:25.722Z,2.90
2023-08-16T14:52:53.866Z,3.00
2023-08-16T14:55:23.309Z,2.85
2023-08-16T14:57:51.590Z,2.70
2023-08-16T15:00:21.049Z,3.25
2023-08-16T15:02:50.785Z,2.85
2023-08-16T15:05:19.048Z,2.97
2023-08-16T15:07:47.235Z,3.15
2023-08-16T15:10:15.493Z,3.15
2023-08-16T15:12:44.266Z,2.90
2023-08-16T15:15:13.437Z,2.72
2023-08-16T15:17:41.710Z,2.85
2023-08-16T15:20:12.459Z,3.08
2023-08-16T15:22:41.183Z,2.88
2023-08-16T15:25:10.635Z,3.85
2023-08-16T15:27:41.316Z,2.80
2023-08-16T15:30:11.818Z,2.70
2023-08-16T15:32:44.393Z,2.75
2023-08-16T15:35:13.915Z,3.30
2023-08-16T15:37:42.730Z,2.63
2023-08-16T15:40:11.651Z,2.78
2023-08-16T15:42:39.701Z,3.10
2023-08-16T15:45:08.803Z,3.35
2023-08-16T15:47:36.861Z,3.72
2023-08-16T15:50:05.171Z,3.33
2023-08-16T15:52:34.653Z,3.47
2023-08-16T15:55:04.098Z,3.78
2023-08-16T15:57:33.482Z,3.30
2023-08-16T16:00:02.618Z,3.42
2023-08-16T16:02:30.845Z,3.60
2023-08-16T16:04:58.953Z,4.30
2023-08-16T16:07:27.541Z,4.63
2023-08-16T16:09:59.464Z,4.10
2023-08-16T16:12:27.589Z,4.88
2023-08-16T16:14:55.964Z,4.80
2023-08-16T16:17:26.175Z,4.40
2023-08-16T16:19:57.140Z,5.80
2023-08-16T16:22:27.826Z,5.57
2023-08-16T16:24:59.756Z,5.40
2023-08-16T16:27:28.154Z,4.90
2023-08-16T16:29:56.608Z,5.88
2023-08-16T16:32:24.983Z,5.35
2023-08-16T16:34:53.387Z,5.78
2023-08-16T16:37:21.556Z,5.75
2023-08-16T16:39:50.883Z,5.47
2023-08-16T16:42:22.909Z,5.07
2023-08-16T16:44:52.272Z,4.93
2023-08-16T16:47:20.719Z,4.63
2023-08-16T16:49:49.549Z,4.65
2023-08-16T16:52:19.760Z,5.45
2023-08-16T16:54:47.931Z,5.25
2023-08-16T16:57:16.071Z,4.45
2023-08-16T16:59:45.773Z,3.90
2023-08-16T17:02:13.925Z,4.03
2023-08-16T17:04:42.093Z,3.97
2023-08-16T17:07:10.236Z,4.20
2023-08-16T17:09:38.305Z,4.07
2023-08-16T17:12:07.770Z,3.97
2023-08-16T17:14:38.177Z,3.80
2023-08-16T17:17:07.908Z,3.63
2023-08-16T17:19:40.720Z,4.13
2023-08-16T17:22:09.376Z,4.40
2023-08-16T17:24:37.624Z,4.10
2023-08-16T17:27:06.478Z,4.07
2023-08-16T17:29:34.561Z,4.00
2023-08-16T17:32:02.780Z,5.10
2023-08-16T17:34:32.592Z,4.10
2023-08-16T17:37:00.680Z,4.30
2023-08-16T17:39:28.757Z,4.35
2023-08-16T17:41:56.867Z,4.53
2023-08-16T17:44:24.946Z,4.28
2023-08-16T17:46:53.190Z,4.00
2023-08-16T17:49:21.610Z,4.60
2023-08-16T17:51:51.094Z,4.90
2023-08-16T17:54:19.367Z,5.45
2023-08-16T17:56:49.227Z,5.32
2023-08-16T17:59:17.861Z,4.30
2023-08-16T18:01:46.008Z,4.45
2023-08-16T18:04:14.152Z,4.10
2023-08-16T18:06:42.326Z,4.53
2023-08-16T18:09:11.910Z,4.53
2023-08-16T18:11:39.951Z,5.07
2023-08-16T18:14:08.131Z,4.65
2023-08-16T18:16:36.598Z,4.70
2023-08-16T18:19:05.074Z,4.35
2023-08-16T18:21:33.170Z,4.55
2023-08-16T18:24:01.356Z,4.68
2023-08-16T18:26:30.913Z,4.90
2023-08-16T18:28:59.050Z,5.25
2023-08-16T18:31:27.248Z,5.30
2023-08-16T18:33:55.315Z,5.70
2023-08-16T18:36:23.447Z,5.00
2023-08-16T18:38:51.507Z,4.30
2023-08-16T18:41:19.625Z,4.60
2023-08-16T18:43:49.054Z,4.70
2023-08-16T18:46:17.219Z,4.50
2023-08-16T18:48:45.970Z,5.25
2023-08-16T18:51:14.262Z,4.70
2023-08-16T18:53:42.520Z,4.85
2023-08-16T18:56:10.602Z,4.93
2023-08-16T18:58:38.783Z,4.25
2023-08-16T19:01:08.744Z,5.28
2023-08-16T19:03:36.893Z,5.20
2023-08-16T19:06:05.273Z,4.93
2023-08-16T19:08:33.359Z,5.00
2023-08-16T19:11:01.593Z,4.70
2023-08-16T19:13:29.710Z,4.80
2023-08-16T19:15:58.649Z,4.10
2023-08-16T19:18:28.282Z,4.82
2023-08-16T19:20:56.985Z,5.22
2023-08-16T19:23:25.370Z,5.40
2023-08-16T19:25:54.765Z,5.53
2023-08-16T19:28:23.709Z,5.43
2023-08-16T19:30:55.642Z,5.68
2023-08-16T19:33:23.984Z,5.72
2023-08-16T19:35:54.690Z,5.30
2023-08-16T19:38:22.935Z,5.55
2023-08-16T19:40:53.121Z,5.43
2023-08-16T19:43:21.331Z,5.32
2023-08-16T19:45:50.719Z,5.25
2023-08-16T19:48:18.950Z,5.35
2023-08-16T19:50:47.434Z,5.32
2023-08-16T19:53:17.271Z,4.90
2023-08-16T19:55:47.153Z,5.40
2023-08-16T19:58:16.554Z,5.22
2023-08-16T20:00:44.825Z,5.93
2023-08-16T20:03:13.049Z,5.57
2023-08-16T20:05:41.245Z,5.30
2023-08-16T20:08:09.495Z,5.32
2023-08-16T20:10:40.078Z,5.68
2023-08-16T20:13:08.492Z,5.50
2023-08-16T20:15:36.878Z,5.15
2023-08-16T20:18:05.686Z,5.28
2023-08-16T20:20:33.825Z,5.05
2023-08-16T20:23:01.898Z,4.63
2023-08-16T20:25:29.928Z,4.20
2023-08-16T20:27:59.382Z,3.88
2023-08-16T20:30:27.649Z,4.25
2023-08-16T20:32:56.066Z,4.40
2023-08-16T20:35:24.561Z,4.57
2023-08-16T20:37:53.052Z,4.00
2023-08-16T20:40:21.219Z,4.28
2023-08-16T20:42:50.972Z,3.70
2023-08-16T20:45:20.481Z,3.25
2023-08-16T20:47:48.615Z,3.97
2023-08-16T20:50:16.885Z,3.22
2023-08-16T20:52:45.113Z,3.47
2023-08-16T20:55:13.213Z,3.42
2023-08-16T20:57:41.394Z,3.15
2023-08-16T21:00:10.960Z,2.75
2023-08-16T21:02:40.479Z,2.58
2023-08-16T21:05:09.048Z,2.60
2023-08-16T21:07:37.108Z,2.55
2023-08-16T21:10:05.761Z,2.90
2023-08-16T21:12:33.863Z,2.50
2023-08-16T21:15:01.999Z,2.42
2023-08-16T21:17:30.092Z,2.63
2023-08-16T21:19:59.577Z,2.38
2023-08-16T21:22:27.613Z,2.85
2023-08-16T21:24:55.877Z,2.30
2023-08-16T21:27:24.226Z,2.53
2023-08-16T21:29:52.521Z,2.40
2023-08-16T21:32:20.801Z,2.72
2023-08-16T21:34:48.923Z,2.55
2023-08-16T21:37:18.386Z,2.15
2023-08-16T21:39:49.500Z,2.38
2023-08-16T21:42:17.590Z,1.90
2023-08-16T21:44:45.652Z,1.92
2023-08-16T21:47:13.728Z,2.20
2023-08-16T21:49:41.776Z,1.90
2023-08-16T21:52:09.857Z,2.13
2023-08-16T21:54:39.320Z,1.80
2023-08-16T21:57:07.436Z,2.60
2023-08-16T21:59:35.526Z,1.75
2023-08-16T22:02:03.645Z,2.08
2023-08-16T22:04:31.779Z,1.92
2023-08-16T22:06:59.904Z,2.08
2023-08-16T22:09:27.982Z,2.20
2023-08-16T22:11:57.881Z,1.83
2023-08-16T22:14:25.980Z,2.40
2023-08-16T22:16:54.070Z,2.30
2023-08-16T22:19:22.262Z,2.05
2023-08-16T22:21:50.322Z,1.98
2023-08-16T22:24:18.493Z,2.58
2023-08-16T22:26:46.562Z,1.92
2023-08-16T22:29:16.085Z,3.00
2023-08-16T22:31:45.272Z,2.80
2023-08-16T22:34:13.371Z,2.83
2023-08-16T22:36:42.152Z,2.67
2023-08-16T22:39:10.274Z,3.88
2023-08-16T22:41:38.337Z,3.53
2023-08-16T22:44:06.849Z,3.08
2023-08-16T22:46:36.409Z,2.80
2023-08-16T22:49:05.188Z,2.60
2023-08-16T22:51:34.970Z,3.85
2023-08-16T22:54:03.034Z,2.30
2023-08-16T22:56:31.111Z,2.22
2023-08-16T22:58:59.167Z,2.47
2023-08-16T23:01:28.100Z,2.72
2023-08-16T23:03:57.541Z,3.25
2023-08-16T23:06:25.700Z,2.70
2023-08-16T23:08:53.800Z,3.35
2023-08-16T23:11:21.901Z,2.40
2023-08-16T23:13:49.976Z,3.60
2023-08-16T23:16:18.093Z,3.00
2023-08-16T23:18:47.684Z,3.50
2023-08-16T23:21:17.137Z,3.22
2023-08-16T23:23:45.293Z,2.65
2023-08-16T23:26:13.794Z,3.10
2023-08-16T23:28:41.913Z,2.60
2023-08-16T23:31:10.011Z,3.17
2023-08-16T23:33:38.077Z,2.83
2023-08-16T23:36:06.711Z,3.22
2023-08-16T23:38:36.190Z,3.10
2023-08-16T23:41:04.756Z,3.40
2023-08-16T23:43:32.850Z,3.38
2023-08-16T23:46:01.818Z,3.22
2023-08-16T23:48:29.913Z,3.05
2023-08-16T23:50:57.961Z,3.25
2023-08-16T23:53:26.038Z,3.45
2023-08-16T23:55:55.528Z,2.83
2023-08-16T23:58:23.616Z,3.42
